createdAt,value
2018-09-22T00:00:02.117Z,44.10
2018-09-22T00:02:30.399Z,44.10
2018-09-22T00:04:58.745Z,43.90
2018-09-22T00:07:27.019Z,44.10
2018-09-22T00:09:55.286Z,44.50
2018-09-22T00:12:23.561Z,44.50
2018-09-22T00:14:51.939Z,43.90
2018-09-22T00:17:20.224Z,43.70
2018-09-22T00:19:49.621Z,43.90
2018-09-22T00:22:17.910Z,44.30
2018-09-22T00:24:46.467Z,45.20
2018-09-22T00:27:14.753Z,45.80
2018-09-22T00:29:43.012Z,45.70
2018-09-22T00:32:11.279Z,44.50
2018-09-22T00:34:39.653Z,44.60
2018-09-22T00:37:07.972Z,44.60
2018-09-22T00:39:36.245Z,45.40
2018-09-22T00:42:04.541Z,45.60
2018-09-22T00:44:32.799Z,45.20
2018-09-22T00:47:01.113Z,44.50
2018-09-22T00:49:29.377Z,44.10
2018-09-22T00:51:57.669Z,43.90
2018-09-22T00:54:25.943Z,43.40
2018-09-22T00:56:54.231Z,43.20
2018-09-22T00:59:22.511Z,43.30
2018-09-22T01:01:50.767Z,43.60
2018-09-22T01:04:19.038Z,43.90
2018-09-22T01:06:47.297Z,44.20
2018-09-22T01:09:15.551Z,44.30
2018-09-22T01:11:43.831Z,44.00
2018-09-22T01:14:12.191Z,43.60
2018-09-22T01:16:40.497Z,43.70
2018-09-22T01:19:08.820Z,43.80
2018-09-22T01:21:37.101Z,44.40
2018-09-22T01:24:05.396Z,44.50
2018-09-22T01:26:33.653Z,43.90
2018-09-22T01:29:01.979Z,43.50
2018-09-22T01:31:30.256Z,43.30
2018-09-22T01:33:58.539Z,43.30
2018-09-22T01:36:26.795Z,43.40
2018-09-22T01:38:55.065Z,43.50
2018-09-22T01:41:23.344Z,43.80
2018-09-22T01:43:51.599Z,42.90
2018-09-22T01:46:19.887Z,43.10
2018-09-22T01:48:48.158Z,43.10
2018-09-22T01:51:16.433Z,43.30
2018-09-22T01:53:44.687Z,43.20
2018-09-22T01:56:12.996Z,43.60
2018-09-22T01:58:41.251Z,43.50
2018-09-22T02:01:09.733Z,42.90
2018-09-22T02:03:38.010Z,43.00
2018-09-22T02:06:06.432Z,43.10
2018-09-22T02:08:34.720Z,43.50
2018-09-22T02:11:02.986Z,44.30
2018-09-22T02:13:31.248Z,44.00
2018-09-22T02:15:59.506Z,43.30
2018-09-22T02:18:27.759Z,43.10
2018-09-22T02:20:56.040Z,42.70
2018-09-22T02:23:24.307Z,42.60
2018-09-22T02:25:52.589Z,42.40
2018-09-22T02:28:20.857Z,42.50
2018-09-22T02:30:49.119Z,42.70
2018-09-22T02:33:17.388Z,43.00
2018-09-22T02:35:45.667Z,43.20
2018-09-22T02:38:13.949Z,43.60
2018-09-22T02:40:42.245Z,44.10
2018-09-22T02:43:10.501Z,43.00
2018-09-22T02:45:38.760Z,43.10
2018-09-22T02:48:07.019Z,43.10
2018-09-22T02:50:35.298Z,43.20
2018-09-22T02:53:03.552Z,43.80
2018-09-22T02:55:31.838Z,45.00
2018-09-22T02:58:00.105Z,43.40
2018-09-22T03:00:28.382Z,42.90
2018-09-22T03:02:56.684Z,42.70
2018-09-22T03:05:24.969Z,42.50
2018-09-22T03:07:53.311Z,43.20
2018-09-22T03:10:21.631Z,43.50
2018-09-22T03:12:49.914Z,44.00
2018-09-22T03:15:18.251Z,42.80
2018-09-22T03:17:46.471Z,43.00
2018-09-22T03:20:14.738Z,43.40
2018-09-22T03:22:43.015Z,44.10
2018-09-22T03:25:11.268Z,43.80
2018-09-22T03:27:39.528Z,44.00
2018-09-22T03:30:07.802Z,43.70
2018-09-22T03:32:36.070Z,43.50
2018-09-22T03:35:04.335Z,44.60
2018-09-22T03:37:32.598Z,44.30
2018-09-22T03:40:00.862Z,44.20
2018-09-22T03:42:29.112Z,45.10
2018-09-22T03:44:57.404Z,44.90
2018-09-22T03:47:25.688Z,44.10
2018-09-22T03:49:53.968Z,44.20
2018-09-22T03:52:22.272Z,43.90
2018-09-22T03:54:50.536Z,43.80
2018-09-22T03:57:18.804Z,43.30
2018-09-22T03:59:47.067Z,43.40
2018-09-22T04:02:15.344Z,43.60
2018-09-22T04:04:43.636Z,44.30
2018-09-22T04:07:11.894Z,44.50
2018-09-22T04:09:40.148Z,44.80
2018-09-22T04:12:08.416Z,45.00
2018-09-22T04:14:36.680Z,44.20
2018-09-22T04:17:04.956Z,44.40
2018-09-22T04:19:33.369Z,44.80
2018-09-22T04:22:01.672Z,45.20
2018-09-22T04:24:29.930Z,45.50
2018-09-22T04:26:58.204Z,45.40
2018-09-22T04:29:26.480Z,44.50
2018-09-22T04:31:54.744Z,44.20
2018-09-22T04:34:23.044Z,44.50
2018-09-22T04:36:51.318Z,44.30
2018-09-22T04:39:19.594Z,44.20
2018-09-22T04:41:48.263Z,44.60
2018-09-22T04:44:16.577Z,44.40
2018-09-22T04:46:44.836Z,44.20
2018-09-22T04:49:13.094Z,44.70
2018-09-22T04:51:41.405Z,44.90
2018-09-22T04:54:09.673Z,45.00
2018-09-22T04:56:37.968Z,45.60
2018-09-22T04:59:06.252Z,45.80
2018-09-22T05:01:34.537Z,44.90
2018-09-22T05:04:02.817Z,44.80
2018-09-22T05:06:31.077Z,45.10
2018-09-22T05:08:59.357Z,45.50
2018-09-22T05:11:27.616Z,45.80
2018-09-22T05:13:55.945Z,45.90
2018-09-22T05:16:24.200Z,45.60
2018-09-22T05:18:52.472Z,44.90
2018-09-22T05:21:20.744Z,44.60
2018-09-22T05:23:49.038Z,44.90
2018-09-22T05:26:17.298Z,44.40
2018-09-22T05:28:45.560Z,44.70
2018-09-22T05:31:13.862Z,44.90
2018-09-22T05:33:42.140Z,44.30
2018-09-22T05:36:10.415Z,44.60
2018-09-22T05:38:38.772Z,44.90
2018-09-22T05:41:07.067Z,45.40
2018-09-22T05:43:35.342Z,45.90
2018-09-22T05:46:03.608Z,45.70
2018-09-22T05:48:31.891Z,45.20
2018-09-22T05:51:00.158Z,45.10
2018-09-22T05:53:28.429Z,45.40
2018-09-22T05:55:56.684Z,45.70
2018-09-22T05:58:24.940Z,45.80
2018-09-22T06:00:53.245Z,46.00
2018-09-22T06:03:21.551Z,45.50
2018-09-22T06:05:49.882Z,44.80
2018-09-22T06:08:18.141Z,44.50
2018-09-22T06:10:46.441Z,44.30
2018-09-22T06:13:14.721Z,44.40
2018-09-22T06:15:43.012Z,44.90
2018-09-22T06:18:11.308Z,45.00
2018-09-22T06:20:39.608Z,44.90
2018-09-22T06:23:07.934Z,44.70
2018-09-22T06:25:36.144Z,45.00
2018-09-22T06:28:04.486Z,44.90
2018-09-22T06:30:32.772Z,45.50
2018-09-22T06:33:01.250Z,45.60
2018-09-22T06:35:29.529Z,45.60
2018-09-22T06:37:57.812Z,44.90
2018-09-22T06:40:26.454Z,44.70
2018-09-22T06:42:54.745Z,44.70
2018-09-22T06:45:23.032Z,44.70
2018-09-22T06:47:51.331Z,45.00
2018-09-22T06:50:19.613Z,45.20
2018-09-22T06:52:47.911Z,45.20
2018-09-22T06:55:16.356Z,44.70
2018-09-22T06:57:44.645Z,45.00
2018-09-22T07:00:12.942Z,45.40
2018-09-22T07:02:41.225Z,45.90
2018-09-22T07:05:09.493Z,46.00
2018-09-22T07:07:37.803Z,46.00
2018-09-22T07:10:06.092Z,45.50
2018-09-22T07:12:34.555Z,45.10
2018-09-22T07:15:02.906Z,45.10
2018-09-22T07:17:31.194Z,45.50
2018-09-22T07:19:59.491Z,45.40
2018-09-22T07:22:33.199Z,46.10
2018-09-22T07:25:01.475Z,45.30
2018-09-22T07:27:29.749Z,45.30
2018-09-22T07:29:58.037Z,45.70
2018-09-22T07:32:26.350Z,46.00
2018-09-22T07:34:54.648Z,46.40
2018-09-22T07:37:22.919Z,47.50
2018-09-22T07:39:51.237Z,47.40
2018-09-22T07:42:19.493Z,46.30
2018-09-22T07:44:47.853Z,46.50
2018-09-22T07:47:16.134Z,47.40
2018-09-22T07:49:44.442Z,47.00
2018-09-22T07:52:12.733Z,46.50
2018-09-22T07:54:41.045Z,46.90
2018-09-22T07:57:09.469Z,46.70
2018-09-22T07:59:37.643Z,46.00
2018-09-22T08:02:06.423Z,45.80
2018-09-22T08:04:34.724Z,45.60
2018-09-22T08:07:03.045Z,45.50
2018-09-22T08:09:31.306Z,45.70
2018-09-22T08:11:59.586Z,46.40
2018-09-22T08:14:27.915Z,46.00
2018-09-22T08:16:56.200Z,46.00
2018-09-22T08:19:24.477Z,46.40
2018-09-22T08:21:52.771Z,48.10
2018-09-22T08:24:21.628Z,48.00
2018-09-22T08:26:49.927Z,48.20
2018-09-22T08:29:18.885Z,47.80
2018-09-22T08:31:47.207Z,47.60
2018-09-22T08:34:15.493Z,47.10
2018-09-22T08:36:43.819Z,46.90
2018-09-22T08:39:12.711Z,47.70
2018-09-22T08:41:41.454Z,48.40
2018-09-22T08:44:10.400Z,47.00
2018-09-22T08:46:38.694Z,46.30
2018-09-22T08:49:06.992Z,45.90
2018-09-22T08:51:35.551Z,46.60
2018-09-22T08:54:03.850Z,47.00
2018-09-22T08:56:32.166Z,46.20
2018-09-22T08:59:00.429Z,46.40
2018-09-22T09:01:28.695Z,46.30
2018-09-22T09:03:56.975Z,46.60
2018-09-22T09:06:25.259Z,47.00
2018-09-22T09:08:53.526Z,47.10
2018-09-22T09:11:21.894Z,48.40
2018-09-22T09:13:50.185Z,48.00
2018-09-22T09:16:18.515Z,48.90
2018-09-22T09:18:46.852Z,47.70
2018-09-22T09:21:15.140Z,47.10
2018-09-22T09:23:43.424Z,47.80
2018-09-22T09:26:11.712Z,48.20
2018-09-22T09:28:43.768Z,48.20
2018-09-22T09:31:12.602Z,48.60
2018-09-22T09:33:40.896Z,49.30
2018-09-22T09:36:09.182Z,47.80
2018-09-22T09:38:37.568Z,48.00
2018-09-22T09:41:05.864Z,48.20
2018-09-22T09:43:34.145Z,47.70
2018-09-22T09:46:03.096Z,47.80
2018-09-22T09:48:31.406Z,47.80
2018-09-22T09:50:59.706Z,47.50
2018-09-22T09:53:27.986Z,47.80
2018-09-22T09:55:56.264Z,47.80
2018-09-22T09:58:24.540Z,48.40
2018-09-22T10:00:52.842Z,48.20
2018-09-22T10:03:22.713Z,48.50
2018-09-22T10:05:50.989Z,48.30
2018-09-22T10:08:19.282Z,47.60
2018-09-22T10:10:47.577Z,47.30
2018-09-22T10:13:15.924Z,47.80
2018-09-22T10:15:44.251Z,47.60
2018-09-22T10:18:12.539Z,48.10
2018-09-22T10:20:40.839Z,49.10
2018-09-22T10:23:09.119Z,47.10
2018-09-22T10:25:37.459Z,46.50
2018-09-22T10:28:05.760Z,46.20
2018-09-22T10:30:33.993Z,47.00
2018-09-22T10:33:02.268Z,46.10
2018-09-22T10:35:30.613Z,45.80
2018-09-22T10:37:58.899Z,45.60
2018-09-22T10:40:27.203Z,45.40
2018-09-22T10:42:55.479Z,46.60
2018-09-22T10:45:23.793Z,46.30
2018-09-22T10:47:52.076Z,46.60
2018-09-22T10:50:20.387Z,47.30
2018-09-22T10:52:48.795Z,47.60
2018-09-22T10:55:17.840Z,47.50
2018-09-22T10:57:46.122Z,47.80
2018-09-22T11:00:14.408Z,47.30
2018-09-22T11:02:42.688Z,46.40
2018-09-22T11:05:12.350Z,46.00
2018-09-22T11:07:40.619Z,46.40
2018-09-22T11:10:08.868Z,46.70
2018-09-22T11:12:37.136Z,45.30
2018-09-22T11:15:05.484Z,45.10
2018-09-22T11:17:33.764Z,46.10
2018-09-22T11:20:02.060Z,45.50
2018-09-22T11:22:30.343Z,46.40
2018-09-22T11:24:58.680Z,46.70
2018-09-22T11:27:26.972Z,46.20
2018-09-22T11:29:55.360Z,46.20
2018-09-22T11:32:23.642Z,45.50
2018-09-22T11:34:51.952Z,45.70
2018-09-22T11:37:20.216Z,46.50
2018-09-22T11:39:48.529Z,47.40
2018-09-22T11:42:16.801Z,47.30
2018-09-22T11:44:45.086Z,47.10
2018-09-22T11:47:13.386Z,47.60
2018-09-22T11:49:41.685Z,47.40
2018-09-22T11:52:09.973Z,46.20
2018-09-22T11:54:38.260Z,46.50
2018-09-22T11:57:06.248Z,47.40
2018-09-22T11:59:34.524Z,45.60
2018-09-22T12:02:02.866Z,45.30
2018-09-22T12:04:31.636Z,45.70
2018-09-22T12:07:00.446Z,46.00
2018-09-22T12:09:28.790Z,45.10
2018-09-22T12:11:57.021Z,46.60
2018-09-22T12:14:25.312Z,45.90
2018-09-22T12:16:53.585Z,45.30
2018-09-22T12:19:21.876Z,45.10
2018-09-22T12:21:50.152Z,46.70
2018-09-22T12:24:18.409Z,46.20
2018-09-22T12:26:46.706Z,45.90
2018-09-22T12:29:15.075Z,46.30
2018-09-22T12:31:43.329Z,46.70
2018-09-22T12:34:11.622Z,47.60
2018-09-22T12:36:39.955Z,45.60
2018-09-22T12:39:11.786Z,44.90
2018-09-22T12:41:40.382Z,45.00
2018-09-22T12:44:10.106Z,44.20
2018-09-22T12:46:38.385Z,44.70
2018-09-22T12:49:06.672Z,45.60
2018-09-22T12:51:34.992Z,45.40
2018-09-22T12:54:03.812Z,46.20
2018-09-22T12:56:32.946Z,46.50
2018-09-22T12:59:01.276Z,46.40
2018-09-22T13:01:29.589Z,46.80
2018-09-22T13:03:57.861Z,45.60
2018-09-22T13:06:26.178Z,44.90
2018-09-22T13:08:54.455Z,43.60
2018-09-22T13:11:22.746Z,45.50
2018-09-22T13:13:51.223Z,46.60
2018-09-22T13:16:19.493Z,46.80
2018-09-22T13:18:47.797Z,46.60
2018-09-22T13:21:16.165Z,45.00
2018-09-22T13:23:44.448Z,45.30
2018-09-22T13:26:13.031Z,46.00
2018-09-22T13:28:41.316Z,47.00
2018-09-22T13:31:09.676Z,46.30
2018-09-22T13:33:37.948Z,46.90
2018-09-22T13:36:06.533Z,46.90
2018-09-22T13:38:34.840Z,48.10
2018-09-22T13:41:03.231Z,47.30
2018-09-22T13:43:31.518Z,48.90
2018-09-22T13:45:59.805Z,49.20
2018-09-22T13:48:28.089Z,48.10
2018-09-22T13:50:56.439Z,47.80
2018-09-22T13:53:24.736Z,48.80
2018-09-22T13:55:53.571Z,47.10
2018-09-22T13:58:21.842Z,46.60
2018-09-22T14:00:50.129Z,46.30
2018-09-22T14:03:18.405Z,45.90
2018-09-22T14:05:46.697Z,46.50
2018-09-22T14:08:15.008Z,47.40
2018-09-22T14:10:43.314Z,46.30
2018-09-22T14:13:11.608Z,46.40
2018-09-22T14:15:39.920Z,47.80
2018-09-22T14:18:08.233Z,48.40
2018-09-22T14:20:36.518Z,48.00
2018-09-22T14:23:05.658Z,48.00
2018-09-22T14:25:33.969Z,49.00
2018-09-22T14:28:02.268Z,48.40
2018-09-22T14:30:30.536Z,47.50
2018-09-22T14:32:58.817Z,47.00
2018-09-22T14:35:27.089Z,46.70
2018-09-22T14:37:55.365Z,46.20
2018-09-22T14:40:23.658Z,46.40
2018-09-22T14:42:51.916Z,46.20
2018-09-22T14:45:20.236Z,46.30
2018-09-22T14:47:48.573Z,47.40
2018-09-22T14:50:16.841Z,47.60
2018-09-22T14:52:45.124Z,48.20
2018-09-22T14:55:13.398Z,47.50
2018-09-22T14:57:42.534Z,46.50
2018-09-22T15:00:10.787Z,45.70
2018-09-22T15:02:39.227Z,45.50
2018-09-22T15:05:07.496Z,44.90
2018-09-22T15:07:35.777Z,45.80
2018-09-22T15:10:05.187Z,46.00
2018-09-22T15:12:33.990Z,47.20
2018-09-22T15:15:02.288Z,46.30
2018-09-22T15:17:31.417Z,46.00
2018-09-22T15:19:59.744Z,46.00
2018-09-22T15:22:28.085Z,46.00
2018-09-22T15:24:56.384Z,46.40
2018-09-22T15:27:24.664Z,46.70
2018-09-22T15:29:53.096Z,46.80
2018-09-22T15:32:21.442Z,47.30
2018-09-22T15:34:49.810Z,47.20
2018-09-22T15:37:18.117Z,46.70
2018-09-22T15:39:46.431Z,46.00
2018-09-22T15:42:14.779Z,46.10
2018-09-22T15:44:43.121Z,45.80
2018-09-22T15:47:11.405Z,46.20
2018-09-22T15:49:39.680Z,46.60
2018-09-22T15:52:08.025Z,46.20
2018-09-22T15:54:36.543Z,46.00
2018-09-22T15:57:04.913Z,45.50
2018-09-22T15:59:33.307Z,45.60
2018-09-22T16:02:01.664Z,45.80
2018-09-22T16:04:29.945Z,47.00
2018-09-22T16:06:58.297Z,47.10
2018-09-22T16:09:26.586Z,47.00
2018-09-22T16:11:54.953Z,47.60
2018-09-22T16:14:23.253Z,47.30
2018-09-22T16:16:51.557Z,47.00
2018-09-22T16:19:19.887Z,46.70
2018-09-22T16:21:48.168Z,47.00
2018-09-22T16:24:16.462Z,47.10
2018-09-22T16:26:44.790Z,47.10
2018-09-22T16:29:13.045Z,47.10
2018-09-22T16:31:41.359Z,47.50
2018-09-22T16:34:10.366Z,47.40
2018-09-22T16:36:38.645Z,48.00
2018-09-22T16:39:07.867Z,48.60
2018-09-22T16:41:36.171Z,48.50
2018-09-22T16:44:04.457Z,48.30
2018-09-22T16:46:33.248Z,47.90
2018-09-22T16:49:01.547Z,47.70
2018-09-22T16:51:29.967Z,48.40
2018-09-22T16:53:58.247Z,49.60
2018-09-22T16:56:26.511Z,49.80
2018-09-22T16:58:54.787Z,49.80
2018-09-22T17:01:23.316Z,50.00
2018-09-22T17:03:51.623Z,50.10
2018-09-22T17:06:19.960Z,49.90
2018-09-22T17:08:48.229Z,49.50
2018-09-22T17:11:16.543Z,49.20
2018-09-22T17:13:44.815Z,49.10
2018-09-22T17:16:13.137Z,49.00
2018-09-22T17:18:41.405Z,48.80
2018-09-22T17:21:09.707Z,49.90
2018-09-22T17:23:38.139Z,49.90
2018-09-22T17:26:06.547Z,50.20
2018-09-22T17:28:35.051Z,49.10
2018-09-22T17:31:03.353Z,49.50
2018-09-22T17:33:31.657Z,49.50
2018-09-22T17:36:01.135Z,49.90
2018-09-22T17:38:29.413Z,50.90
2018-09-22T17:40:58.340Z,51.40
2018-09-22T17:43:26.621Z,50.90
2018-09-22T17:45:54.941Z,50.70
2018-09-22T17:48:23.219Z,50.50
2018-09-22T17:50:51.509Z,50.50
2018-09-22T17:53:19.840Z,50.90
2018-09-22T17:55:49.079Z,50.70
2018-09-22T17:58:18.451Z,50.50
2018-09-22T18:00:46.763Z,50.50
2018-09-22T18:03:15.093Z,50.40
2018-09-22T18:05:43.423Z,50.40
2018-09-22T18:08:11.712Z,51.20
2018-09-22T18:10:39.993Z,51.60
2018-09-22T18:13:08.295Z,51.50
2018-09-22T18:15:36.592Z,51.10
2018-09-22T18:18:05.899Z,50.90
2018-09-22T18:20:34.224Z,50.60
2018-09-22T18:23:02.536Z,51.10
2018-09-22T18:25:31.467Z,51.70
2018-09-22T18:27:59.754Z,51.50
2018-09-22T18:30:28.054Z,51.20
2018-09-22T18:32:56.402Z,51.10
2018-09-22T18:35:24.721Z,51.10
2018-09-22T18:37:53.020Z,51.10
2018-09-22T18:40:21.860Z,52.00
2018-09-22T18:42:50.153Z,52.40
2018-09-22T18:45:18.726Z,52.40
2018-09-22T18:47:47.034Z,52.10
2018-09-22T18:50:15.352Z,52.10
2018-09-22T18:52:43.661Z,51.80
2018-09-22T18:55:11.975Z,52.00
2018-09-22T18:57:40.288Z,52.50
2018-09-22T19:00:08.706Z,52.20
2018-09-22T19:02:37.016Z,52.00
2018-09-22T19:05:05.374Z,52.00
2018-09-22T19:07:33.682Z,51.90
2018-09-22T19:10:02.010Z,51.90
2018-09-22T19:12:30.330Z,52.50
2018-09-22T19:15:03.207Z,52.90
2018-09-22T19:17:41.866Z,52.90
2018-09-22T19:20:30.096Z,52.70
2018-09-22T19:23:01.674Z,52.40
2018-09-22T19:25:32.598Z,52.20
2018-09-22T19:28:07.023Z,52.30
2018-09-22T19:30:52.241Z,52.90
2018-09-22T19:33:30.708Z,52.80
2018-09-22T19:36:02.377Z,52.60
2018-09-22T19:38:34.332Z,52.40
2018-09-22T19:41:13.360Z,52.20
2018-09-22T19:43:47.879Z,52.20
2018-09-22T19:46:21.484Z,53.00
2018-09-22T19:48:58.879Z,53.10
2018-09-22T19:51:29.784Z,52.70
2018-09-22T19:53:59.112Z,52.60
2018-09-22T19:56:27.464Z,52.50
2018-09-22T19:58:56.552Z,52.40
2018-09-22T20:01:24.873Z,52.50
2018-09-22T20:03:53.204Z,53.20
2018-09-22T20:06:21.662Z,53.70
2018-09-22T20:08:49.991Z,53.40
2018-09-22T20:11:18.295Z,53.10
2018-09-22T20:13:46.630Z,52.90
2018-09-22T20:16:14.998Z,52.60
2018-09-22T20:18:43.327Z,53.00
2018-09-22T20:21:11.699Z,53.30
2018-09-22T20:23:40.796Z,53.10
2018-09-22T20:26:09.177Z,52.90
2018-09-22T20:28:37.882Z,53.10
2018-09-22T20:31:06.208Z,52.60
2018-09-22T20:33:34.633Z,52.60
2018-09-22T20:36:03.344Z,53.40
2018-09-22T20:38:31.651Z,53.50
2018-09-22T20:40:59.980Z,53.50
2018-09-22T20:43:28.574Z,53.20
2018-09-22T20:45:56.870Z,53.00
2018-09-22T20:48:25.209Z,52.80
2018-09-22T20:50:53.516Z,52.90
2018-09-22T20:53:21.854Z,53.50
2018-09-22T20:55:50.180Z,53.50
2018-09-22T20:58:18.468Z,53.10
2018-09-22T21:00:46.786Z,53.10
2018-09-22T21:03:15.080Z,53.00
2018-09-22T21:05:43.370Z,53.00
2018-09-22T21:08:11.681Z,53.50
2018-09-22T21:10:39.982Z,53.70
2018-09-22T21:13:08.288Z,53.40
2018-09-22T21:15:36.562Z,53.30
2018-09-22T21:18:04.854Z,53.30
2018-09-22T21:20:33.150Z,53.20
2018-09-22T21:23:01.439Z,53.30
2018-09-22T21:25:29.728Z,54.10
2018-09-22T21:27:58.027Z,54.20
2018-09-22T21:30:26.323Z,54.10
2018-09-22T21:32:54.608Z,53.90
2018-09-22T21:35:24.106Z,53.60
2018-09-22T21:37:52.421Z,53.40
2018-09-22T21:40:20.802Z,53.20
2018-09-22T21:42:49.137Z,53.10
2018-09-22T21:45:17.446Z,53.00
2018-09-22T21:47:45.801Z,53.10
2018-09-22T21:50:14.105Z,53.10
2018-09-22T21:52:42.430Z,53.10
2018-09-22T21:55:10.727Z,53.10
2018-09-22T21:57:39.035Z,53.50
2018-09-22T22:00:07.432Z,52.90
2018-09-22T22:02:35.757Z,53.60
2018-09-22T22:05:04.084Z,53.80
2018-09-22T22:07:32.376Z,53.40
2018-09-22T22:10:00.656Z,53.10
2018-09-22T22:12:28.944Z,52.70
2018-09-22T22:14:57.229Z,52.30
2018-09-22T22:17:25.575Z,52.00
2018-09-22T22:19:53.943Z,51.70
2018-09-22T22:22:22.255Z,51.40
2018-09-22T22:24:50.611Z,51.20
2018-09-22T22:27:18.908Z,51.00
2018-09-22T22:29:47.312Z,51.10
2018-09-22T22:32:15.594Z,50.80
2018-09-22T22:34:43.902Z,51.20
2018-09-22T22:37:12.180Z,51.50
2018-09-22T22:39:40.492Z,51.80
2018-09-22T22:42:08.796Z,52.30
2018-09-22T22:44:37.709Z,52.50
2018-09-22T22:47:06.012Z,52.40
2018-09-22T22:49:34.316Z,52.70
2018-09-22T22:52:02.708Z,52.70
2018-09-22T22:54:31.000Z,52.70
2018-09-22T22:56:59.291Z,53.20
2018-09-22T22:59:27.694Z,53.70
2018-09-22T23:01:55.985Z,53.50
2018-09-22T23:04:24.282Z,53.70
2018-09-22T23:06:52.544Z,52.50
2018-09-22T23:09:20.857Z,52.50
2018-09-22T23:11:49.168Z,52.60
2018-09-22T23:14:17.826Z,53.00
2018-09-22T23:16:46.097Z,53.20
2018-09-22T23:19:14.363Z,53.10
2018-09-22T23:21:42.731Z,53.00
2018-09-22T23:24:11.009Z,52.90
2018-09-22T23:26:39.275Z,53.10
2018-09-22T23:29:08.087Z,53.80
2018-09-22T23:31:36.370Z,53.80
2018-09-22T23:34:04.637Z,53.60
2018-09-22T23:36:32.931Z,53.40
2018-09-22T23:39:01.227Z,53.40
2018-09-22T23:41:29.524Z,53.30
2018-09-22T23:43:57.807Z,53.60
2018-09-22T23:46:26.095Z,53.30
2018-09-22T23:48:54.365Z,53.20
2018-09-22T23:51:22.635Z,53.00
2018-09-22T23:53:50.909Z,53.10
2018-09-22T23:56:19.209Z,52.90
2018-09-22T23:58:47.484Z,53.90
